Time;durP1;ratioP1;P1;durP2;ratioP2;P2;SDS_P1;SDS_P2;PMS_P1;PMS_P2;Temp;Humidity;BMP_temperature;BMP_pressure;BME280_temperature;BME280_humidity;BME280_pressure;Samples;Min_cycle;Max_cycle;Signal;HPM_P1;HPM_P2
2022/02/01 00:01:02;;;;;;;87.18;66.57;;;;;;;;;;5053163;28;20013;-34
2022/02/01 00:03:32;;;;;;;82.28;69.75;;;;;;;;;;5050500;28;20021;-35
2022/02/01 00:08:44;;;;;;;64.05;57.35;;;;;;;;;;5049287;28;20816;-34
2022/02/01 00:14:11;;;;;;;75.03;60.15;;;;;;;;;;5045516;28;20512;-34
2022/02/01 00:36:26;;;;;;;54.67;47.97;;;;;;;;;;5051831;28;20021;-35
2022/02/01 00:38:52;;;;;;;68.22;48.35;;;;;;;;;;5041110;28;20028;-34
2022/02/01 00:41:18;;;;;;;51.67;45.85;;;;;;;;;;5045886;28;20017;-34
2022/02/01 00:43:44;;;;;;;65.90;52.58;;;;;;;;;;5047176;28;20545;-34
2022/02/01 00:46:09;;;;;;;56.38;48.88;;;;;;;;;;5050522;28;20104;-37
2022/02/01 00:48:34;;;;;;;58.70;49.67;;;;;;;;;;5043395;28;20027;-33
2022/02/01 00:51:00;;;;;;;54.28;45.65;;;;;;;;;;5048587;28;20462;-34
2022/02/01 00:53:31;;;;;;;51.17;43.38;;;;;;;;;;5039266;28;20152;-35
2022/02/01 00:55:57;;;;;;;47.92;39.90;;;;;;;;;;5047647;28;20130;-35
2022/02/01 00:58:23;;;;;;;53.88;38.90;;;;;;;;;;5048455;28;20043;-34
2022/02/01 01:00:48;;;;;;;52.25;40.08;;;;;;;;;;5038577;28;20604;-34
2022/02/01 01:03:14;;;;;;;44.83;37.08;;;;;;;;;;5046726;28;20393;-34
2022/02/01 01:05:39;;;;;;;39.45;34.67;;;;;;;;;;5046108;28;20013;-34
2022/02/01 01:08:05;;;;;;;39.25;34.13;;;;;;;;;;5047857;28;20039;-35
2022/02/01 01:10:30;;;;;;;40.22;34.15;;;;;;;;;;5044363;28;20029;-34
2022/02/01 01:13:08;;;;;;;41.17;36.75;;;;;;;;;;5045541;28;20060;-34
2022/02/01 01:15:35;;;;;;;38.40;34.30;;;;;;;;;;5043647;28;20040;-34
2022/02/01 01:18:29;;;;;;;46.80;35.22;;;;;;;;;;5047782;28;20089;-42
2022/02/01 01:46:30;;;;;;;43.33;35.92;;;;;;;;;;5050728;28;20539;-35
2022/02/01 01:54:12;;;;;;;44.35;36.75;;;;;;;;;;5000161;28;20597;-34
2022/02/01 01:56:38;;;;;;;35.03;30.52;;;;;;;;;;5047740;28;20021;-35
2022/02/01 01:59:05;;;;;;;48.10;37.55;;;;;;;;;;5049272;28;20037;-35
2022/02/01 02:01:31;;;;;;;52.92;41.50;;;;;;;;;;5047683;28;20025;-34
2022/02/01 02:03:56;;;;;;;44.05;29.73;;;;;;;;;;5049594;28;20024;-34
2022/02/01 02:06:22;;;;;;;34.90;28.17;;;;;;;;;;5051541;28;20112;-34
2022/02/01 02:08:51;;;;;;;29.90;22.85;;;;;;;;;;5053561;28;20404;-34
2022/02/01 02:11:24;;;;;;;27.30;22.35;;;;;;;;;;5047885;28;20469;-37
2022/02/01 02:16:46;;;;;;;21.38;18.73;;;;;;;;;;5048659;28;20056;-35
2022/02/01 02:19:14;;;;;;;37.25;21.10;;;;;;;;;;5051508;28;20737;-35
2022/02/01 02:21:40;;;;;;;21.88;17.92;;;;;;;;;;5052598;28;20516;-35
2022/02/01 02:24:09;;;;;;;27.15;17.60;;;;;;;;;;5048444;28;20032;-35
2022/02/01 02:26:34;;;;;;;24.52;16.77;;;;;;;;;;5047897;28;20111;-35
2022/02/01 02:29:01;;;;;;;27.00;20.20;;;;;;;;;;5050504;28;20147;-35
2022/02/01 02:31:27;;;;;;;20.90;18.83;;;;;;;;;;5041857;28;20020;-35
2022/02/01 02:34:02;;;;;;;48.78;28.95;;;;;;;;;;5046132;28;20021;-35
2022/02/01 02:36:27;;;;;;;29.75;26.58;;;;;;;;;;5053104;28;20441;-35
2022/02/01 02:38:59;;;;;;;45.95;27.85;;;;;;;;;;5051303;28;20013;-34
2022/02/01 02:46:35;;;;;;;46.65;28.25;;;;;;;;;;5049097;28;20082;-35
2022/02/01 02:49:03;;;;;;;31.63;28.10;;;;;;;;;;5050823;28;20025;-35
2022/02/01 02:51:28;;;;;;;32.33;28.50;;;;;;;;;;5046948;28;20132;-35
2022/02/01 02:53:54;;;;;;;38.13;28.02;;;;;;;;;;5053037;28;20100;-35
2022/02/01 02:56:19;;;;;;;41.10;29.17;;;;;;;;;;5051757;28;20387;-35
2022/02/01 02:58:49;;;;;;;29.80;23.52;;;;;;;;;;5046625;28;20569;-35
2022/02/01 03:01:14;;;;;;;48.38;22.42;;;;;;;;;;5047605;28;20032;-35
2022/02/01 03:03:39;;;;;;;37.60;24.45;;;;;;;;;;5049614;28;20020;-35
2022/02/01 03:06:06;;;;;;;27.63;17.35;;;;;;;;;;5046920;28;20157;-35
2022/02/01 03:08:31;;;;;;;27.15;19.73;;;;;;;;;;5048245;28;20048;-35
2022/02/01 03:10:56;;;;;;;27.92;19.95;;;;;;;;;;5050703;28;20441;-35
2022/02/01 03:13:27;;;;;;;28.15;21.35;;;;;;;;;;5053816;28;20082;-35
2022/02/01 03:16:00;;;;;;;49.20;29.40;;;;;;;;;;5051688;28;20113;-35
2022/02/01 03:21:09;;;;;;;38.88;21.98;;;;;;;;;;5046016;28;20086;-35
2022/02/01 03:23:34;;;;;;;28.35;19.65;;;;;;;;;;5050450;28;20041;-35
2022/02/01 03:25:59;;;;;;;35.33;19.67;;;;;;;;;;5051439;28;20492;-35
2022/02/01 03:28:24;;;;;;;29.27;19.50;;;;;;;;;;5048684;28;20116;-35
2022/02/01 03:30:50;;;;;;;37.28;24.40;;;;;;;;;;5051361;28;20032;-35
2022/02/01 03:33:15;;;;;;;28.25;20.92;;;;;;;;;;5050285;28;20542;-35
2022/02/01 03:35:40;;;;;;;24.80;16.63;;;;;;;;;;5048990;28;20115;-35
2022/02/01 03:38:06;;;;;;;32.70;17.75;;;;;;;;;;5045089;28;20093;-35
2022/02/01 03:40:31;;;;;;;33.40;14.65;;;;;;;;;;5041590;28;20060;-35
2022/02/01 03:42:56;;;;;;;8.30;5.50;;;;;;;;;;5047097;28;20021;-35
2022/02/01 03:45:22;;;;;;;14.75;5.88;;;;;;;;;;5041096;28;20033;-35
2022/02/01 03:47:47;;;;;;;22.20;11.48;;;;;;;;;;5044698;28;20025;-35
2022/02/01 03:50:12;;;;;;;22.58;15.65;;;;;;;;;;5049175;28;20024;-35
2022/02/01 03:52:38;;;;;;;29.98;21.35;;;;;;;;;;5043604;28;20087;-35
2022/02/01 03:55:03;;;;;;;27.02;20.38;;;;;;;;;;5040815;28;20021;-35
2022/02/01 03:57:29;;;;;;;21.25;15.88;;;;;;;;;;5046716;28;20024;-34
2022/02/01 03:59:54;;;;;;;26.13;19.20;;;;;;;;;;5048361;28;20017;-35
2022/02/01 04:02:19;;;;;;;26.08;17.55;;;;;;;;;;5044681;28;20115;-35
2022/02/01 04:04:49;;;;;;;21.70;16.90;;;;;;;;;;5051084;28;20029;-35
2022/02/01 04:07:14;;;;;;;28.30;15.95;;;;;;;;;;5044959;28;20029;-35
2022/02/01 04:09:39;;;;;;;25.08;14.13;;;;;;;;;;5044046;28;20748;-35
2022/02/01 04:12:06;;;;;;;20.27;12.13;;;;;;;;;;5049015;28;20186;-34
2022/02/01 04:14:33;;;;;;;25.40;12.30;;;;;;;;;;5043105;28;20025;-35
2022/02/01 04:17:00;;;;;;;35.00;13.85;;;;;;;;;;5045481;28;20028;-35
2022/02/01 04:19:27;;;;;;;33.47;12.13;;;;;;;;;;5048601;28;20014;-35
2022/02/01 04:22:02;;;;;;;14.60;10.75;;;;;;;;;;5049310;28;20049;-35
2022/02/01 04:24:28;;;;;;;25.05;10.68;;;;;;;;;;5050605;28;20070;-35
2022/02/01 04:26:53;;;;;;;25.90;10.98;;;;;;;;;;5042093;28;20029;-35
2022/02/01 04:29:18;;;;;;;18.05;8.52;;;;;;;;;;5050311;28;20738;-35
2022/02/01 04:31:44;;;;;;;14.30;11.95;;;;;;;;;;5048932;28;20036;-35
2022/02/01 04:34:09;;;;;;;13.15;11.45;;;;;;;;;;5053338;28;20041;-35
2022/02/01 04:36:34;;;;;;;20.02;15.98;;;;;;;;;;5048992;28;20045;-35
2022/02/01 04:39:00;;;;;;;33.08;18.65;;;;;;;;;;5051330;28;20032;-35
2022/02/01 04:41:26;;;;;;;24.13;15.80;;;;;;;;;;5044651;28;20017;-35
2022/02/01 04:43:52;;;;;;;29.23;17.33;;;;;;;;;;5048127;28;20525;-35
2022/02/01 04:46:18;;;;;;;32.67;19.75;;;;;;;;;;5047665;28;20017;-35
2022/02/01 04:48:43;;;;;;;41.70;23.73;;;;;;;;;;5044240;28;20096;-35
2022/02/01 04:51:09;;;;;;;26.52;20.52;;;;;;;;;;5046809;28;20033;-35
2022/02/01 04:53:35;;;;;;;43.58;19.40;;;;;;;;;;5048052;28;20025;-35
2022/02/01 04:56:00;;;;;;;30.35;17.25;;;;;;;;;;5055767;28;20031;-35
2022/02/01 04:58:26;;;;;;;28.30;15.95;;;;;;;;;;5051638;28;20005;-35
2022/02/01 05:00:51;;;;;;;23.10;11.30;;;;;;;;;;5049386;28;20103;-35
2022/02/01 05:03:17;;;;;;;17.13;10.07;;;;;;;;;;5048060;28;20041;-35
2022/02/01 05:05:43;;;;;;;16.83;9.73;;;;;;;;;;5051702;28;20351;-35
2022/02/01 05:08:09;;;;;;;18.50;7.93;;;;;;;;;;5053226;28;20024;-36
2022/02/01 05:10:36;;;;;;;16.30;8.50;;;;;;;;;;5050412;28;20025;-35
2022/02/01 05:16:02;;;;;;;15.55;11.65;;;;;;;;;;5036392;28;20037;-36
2022/02/01 05:18:31;;;;;;;19.27;13.70;;;;;;;;;;5049468;28;20017;-35
2022/02/01 05:21:03;;;;;;;25.35;15.98;;;;;;;;;;5052976;28;20196;-35
2022/02/01 05:23:28;;;;;;;31.95;16.35;;;;;;;;;;5051719;28;20068;-35
2022/02/01 05:25:54;;;;;;;23.65;14.05;;;;;;;;;;5050106;28;20021;-36
2022/02/01 05:28:19;;;;;;;20.63;15.52;;;;;;;;;;5047312;28;20027;-35
2022/02/01 05:30:45;;;;;;;20.00;17.77;;;;;;;;;;5053885;28;20035;-35
2022/02/01 05:33:10;;;;;;;17.27;14.13;;;;;;;;;;5050016;28;20061;-36
2022/02/01 05:35:35;;;;;;;19.70;17.73;;;;;;;;;;5050833;28;20024;-35
2022/02/01 05:38:00;;;;;;;23.55;19.60;;;;;;;;;;5057479;28;20013;-35
2022/02/01 05:40:26;;;;;;;21.52;15.93;;;;;;;;;;5050412;28;20025;-35
2022/02/01 05:43:05;;;;;;;21.17;16.35;;;;;;;;;;5052653;28;20257;-35
2022/02/01 05:45:34;;;;;;;30.65;14.50;;;;;;;;;;5043812;28;20059;-36
2022/02/01 05:48:01;;;;;;;19.38;15.30;;;;;;;;;;5055749;28;20032;-36
2022/02/01 05:50:27;;;;;;;23.58;15.02;;;;;;;;;;5047983;28;20029;-35
2022/02/01 05:52:52;;;;;;;20.23;13.68;;;;;;;;;;5050878;28;20085;-35
2022/02/01 05:55:18;;;;;;;23.40;15.80;;;;;;;;;;5047857;28;20104;-35
2022/02/01 05:57:46;;;;;;;17.48;12.00;;;;;;;;;;5052808;28;20535;-35
2022/02/01 06:00:12;;;;;;;16.95;13.48;;;;;;;;;;5048751;28;20390;-35
2022/02/01 06:02:37;;;;;;;18.00;16.17;;;;;;;;;;5050682;28;20021;-36
2022/02/01 06:05:03;;;;;;;24.85;15.98;;;;;;;;;;5052488;28;20032;-36
2022/02/01 06:07:28;;;;;;;26.00;17.30;;;;;;;;;;5056700;28;20036;-35
2022/02/01 06:09:53;;;;;;;38.05;18.05;;;;;;;;;;5046908;28;20024;-35
2022/02/01 06:12:18;;;;;;;16.85;13.80;;;;;;;;;;5049661;28;20017;-35
2022/02/01 06:14:44;;;;;;;19.48;16.45;;;;;;;;;;5050023;28;20682;-36
2022/02/01 06:17:09;;;;;;;41.38;21.38;;;;;;;;;;5051779;28;20021;-36
2022/02/01 06:19:35;;;;;;;26.30;19.77;;;;;;;;;;5049536;28;20021;-36
2022/02/01 06:22:01;;;;;;;39.72;21.27;;;;;;;;;;5047399;28;20639;-36
2022/02/01 06:24:26;;;;;;;19.48;17.25;;;;;;;;;;5054077;28;20056;-36
2022/02/01 06:26:52;;;;;;;31.90;16.75;;;;;;;;;;5047770;28;20478;-35
2022/02/01 06:29:17;;;;;;;26.73;20.67;;;;;;;;;;5044265;28;20576;-36
2022/02/01 06:31:42;;;;;;;29.17;19.08;;;;;;;;;;5049752;28;20158;-35
2022/02/01 06:34:08;;;;;;;41.67;24.65;;;;;;;;;;5045327;28;20047;-35
2022/02/01 06:36:33;;;;;;;38.92;20.58;;;;;;;;;;5049605;28;20020;-36
2022/02/01 06:38:58;;;;;;;39.20;19.33;;;;;;;;;;5052452;28;20028;-36
2022/02/01 06:41:24;;;;;;;34.88;20.33;;;;;;;;;;5051801;28;20377;-36
2022/02/01 06:43:49;;;;;;;23.90;18.88;;;;;;;;;;5051341;28;20035;-36
2022/02/01 06:46:15;;;;;;;21.08;16.88;;;;;;;;;;5048459;28;20029;-35
2022/02/01 06:48:40;;;;;;;24.48;17.05;;;;;;;;;;5048988;28;20490;-36
2022/02/01 06:51:05;;;;;;;18.88;14.95;;;;;;;;;;5053221;28;20029;-36
2022/02/01 06:53:33;;;;;;;28.23;15.30;;;;;;;;;;5052985;28;20029;-36
2022/02/01 06:56:06;;;;;;;21.90;13.00;;;;;;;;;;5051172;28;20029;-36
2022/02/01 06:58:31;;;;;;;18.17;14.50;;;;;;;;;;5051757;28;20256;-36
2022/02/01 07:00:57;;;;;;;22.15;13.70;;;;;;;;;;5054853;28;20535;-36
2022/02/01 07:03:22;;;;;;;18.38;15.13;;;;;;;;;;5048924;28;20028;-36
2022/02/01 07:05:47;;;;;;;15.35;13.20;;;;;;;;;;5046746;28;20039;-36
2022/02/01 07:08:13;;;;;;;20.08;13.88;;;;;;;;;;5051955;28;20028;-35
2022/02/01 07:10:38;;;;;;;23.80;15.77;;;;;;;;;;5048953;28;20028;-36
2022/02/01 07:13:03;;;;;;;23.15;16.52;;;;;;;;;;5049700;28;20078;-36
2022/02/01 07:15:29;;;;;;;28.35;13.88;;;;;;;;;;5047060;28;20498;-36
2022/02/01 07:17:55;;;;;;;18.67;14.13;;;;;;;;;;5051112;28;20016;-36
2022/02/01 07:20:21;;;;;;;16.92;12.02;;;;;;;;;;5047409;28;20021;-36
2022/02/01 07:22:48;;;;;;;40.35;17.00;;;;;;;;;;5043485;28;20049;-36
2022/02/01 07:25:24;;;;;;;37.85;16.88;;;;;;;;;;5046029;28;20493;-36
2022/02/01 07:27:50;;;;;;;47.50;15.52;;;;;;;;;;5048694;28;20028;-36
2022/02/01 07:30:19;;;;;;;24.33;9.05;;;;;;;;;;5052272;28;20017;-36
2022/02/01 07:32:44;;;;;;;46.53;16.80;;;;;;;;;;5052129;28;20028;-36
2022/02/01 07:35:10;;;;;;;31.42;14.73;;;;;;;;;;5053742;28;20066;-36
2022/02/01 07:37:36;;;;;;;28.80;16.50;;;;;;;;;;5048657;28;20020;-36
2022/02/01 07:40:02;;;;;;;30.58;15.20;;;;;;;;;;5048110;28;20077;-37
2022/02/01 07:42:28;;;;;;;40.90;16.42;;;;;;;;;;5045396;28;20078;-37
2022/02/01 07:44:58;;;;;;;26.23;17.30;;;;;;;;;;5047940;28;20041;-37
2022/02/01 07:47:23;;;;;;;32.22;18.90;;;;;;;;;;5052695;28;20024;-37
2022/02/01 07:49:49;;;;;;;26.45;13.88;;;;;;;;;;5047970;28;20065;-37
2022/02/01 07:52:15;;;;;;;17.20;13.20;;;;;;;;;;5046707;28;20021;-39
2022/02/01 07:54:40;;;;;;;44.53;16.35;;;;;;;;;;5046281;28;20020;-37
2022/02/01 07:57:06;;;;;;;43.60;26.80;;;;;;;;;;5047201;28;20025;-38
2022/02/01 07:59:32;;;;;;;47.88;29.80;;;;;;;;;;5046177;28;20021;-36
2022/02/01 08:01:57;;;;;;;29.95;26.13;;;;;;;;;;5047014;28;20476;-37
2022/02/01 08:04:23;;;;;;;32.53;21.33;;;;;;;;;;5051091;28;20025;-37
2022/02/01 08:06:48;;;;;;;33.60;18.83;;;;;;;;;;5046365;28;20489;-36
2022/02/01 08:09:24;;;;;;;49.55;20.55;;;;;;;;;;5046350;28;20043;-36
2022/02/01 08:11:49;;;;;;;54.08;45.38;;;;;;;;;;5048743;28;20096;-38
2022/02/01 08:17:07;;;;;;;53.05;45.60;;;;;;;;;;5044893;28;20056;-36
2022/02/01 08:19:57;;;;;;;39.75;34.40;;;;;;;;;;5047195;28;20070;-37
2022/02/01 08:25:07;;;;;;;34.08;22.63;;;;;;;;;;5050017;28;20162;-37
2022/02/01 08:27:33;;;;;;;50.72;35.53;;;;;;;;;;5049379;28;20021;-37
2022/02/01 08:29:59;;;;;;;62.67;38.13;;;;;;;;;;5048127;28;20465;-37
2022/02/01 08:32:24;;;;;;;51.15;37.65;;;;;;;;;;5050594;28;20084;-37
2022/02/01 08:34:50;;;;;;;37.65;33.80;;;;;;;;;;5057295;28;20040;-37
2022/02/01 08:37:15;;;;;;;50.10;39.45;;;;;;;;;;5048009;28;20124;-37
2022/02/01 08:39:40;;;;;;;51.97;40.63;;;;;;;;;;5054478;28;20021;-37
2022/02/01 08:42:06;;;;;;;56.10;41.55;;;;;;;;;;5049495;28;20780;-37
2022/02/01 08:44:31;;;;;;;55.55;43.67;;;;;;;;;;5051553;28;20083;-37
2022/02/01 08:46:57;;;;;;;49.17;36.55;;;;;;;;;;5051655;28;20728;-37
2022/02/01 08:49:23;;;;;;;38.55;34.40;;;;;;;;;;5053231;28;20017;-37
2022/02/01 08:51:57;;;;;;;45.35;38.47;;;;;;;;;;5052843;28;20036;-37
2022/02/01 08:54:26;;;;;;;57.60;37.08;;;;;;;;;;5043626;28;20161;-37
2022/02/01 08:59:35;;;;;;;51.50;40.72;;;;;;;;;;5051397;28;20024;-38
2022/02/01 09:02:01;;;;;;;50.40;44.97;;;;;;;;;;5045722;28;20029;-38
2022/02/01 09:04:26;;;;;;;64.53;42.50;;;;;;;;;;5051850;28;20032;-41
2022/02/01 09:06:52;;;;;;;75.10;43.05;;;;;;;;;;5050287;28;20021;-38
2022/02/01 09:09:17;;;;;;;65.60;40.33;;;;;;;;;;5041957;28;20343;-37
2022/02/01 09:11:42;;;;;;;55.78;37.65;;;;;;;;;;5049057;28;20036;-38
2022/02/01 09:14:08;;;;;;;103.03;59.53;;;;;;;;;;5045506;28;20021;-40
2022/02/01 09:16:34;;;;;;;76.05;55.45;;;;;;;;;;5048591;28;20052;-37
2022/02/01 09:18:59;;;;;;;72.35;46.03;;;;;;;;;;5048129;28;20480;-39
2022/02/01 09:21:24;;;;;;;61.20;41.65;;;;;;;;;;5052519;28;20041;-40
2022/02/01 09:23:49;;;;;;;52.47;38.30;;;;;;;;;;5050520;28;20049;-40
2022/02/01 09:26:15;;;;;;;43.22;31.90;;;;;;;;;;5047962;28;20037;-38
2022/02/01 09:28:40;;;;;;;42.22;29.23;;;;;;;;;;5041335;28;20397;-39
2022/02/01 09:31:06;;;;;;;49.42;34.30;;;;;;;;;;5041363;28;20808;-43
2022/02/01 09:33:31;;;;;;;40.08;34.65;;;;;;;;;;5049426;28;20521;-39
2022/02/01 09:35:59;;;;;;;55.88;44.22;;;;;;;;;;5045416;28;20019;-43
2022/02/01 09:38:29;;;;;;;76.60;50.90;;;;;;;;;;5044120;28;20029;-41
2022/02/01 09:40:55;;;;;;;64.72;50.70;;;;;;;;;;5045377;28;20048;-39
2022/02/01 09:43:21;;;;;;;62.20;50.40;;;;;;;;;;5044514;28;20033;-39
2022/02/01 09:45:46;;;;;;;62.63;47.60;;;;;;;;;;5048316;28;20024;-41
2022/02/01 09:48:12;;;;;;;68.10;50.47;;;;;;;;;;5046905;28;20061;-38
2022/02/01 09:50:37;;;;;;;72.25;54.30;;;;;;;;;;5047321;28;20043;-41
2022/02/01 09:53:03;;;;;;;73.78;53.60;;;;;;;;;;5045676;28;20055;-42
2022/02/01 09:55:28;;;;;;;72.95;52.85;;;;;;;;;;5045513;28;20436;-38
2022/02/01 09:57:54;;;;;;;67.70;54.13;;;;;;;;;;5048616;28;20025;-37
2022/02/01 10:00:22;;;;;;;81.70;60.88;;;;;;;;;;5044216;28;20310;-42
2022/02/01 10:02:53;;;;;;;67.63;57.80;;;;;;;;;;5041084;28;20087;-38
2022/02/01 10:05:18;;;;;;;76.90;63.35;;;;;;;;;;5047527;28;20057;-39
2022/02/01 10:07:50;;;;;;;72.53;57.45;;;;;;;;;;5041740;28;20056;-40
2022/02/01 10:10:15;;;;;;;61.03;47.78;;;;;;;;;;5045438;28;20615;-41
2022/02/01 10:12:42;;;;;;;92.82;59.42;;;;;;;;;;5042084;28;20044;-39
2022/02/01 10:15:19;;;;;;;76.22;58.78;;;;;;;;;;5049870;28;20033;-39
2022/02/01 10:17:50;;;;;;;79.82;53.05;;;;;;;;;;5049198;28;20433;-39
2022/02/01 10:20:16;;;;;;;76.00;57.58;;;;;;;;;;5042168;28;20045;-39
2022/02/01 10:22:42;;;;;;;79.43;58.63;;;;;;;;;;5043654;28;20531;-38
2022/02/01 10:25:29;;;;;;;81.65;55.72;;;;;;;;;;5042003;28;20034;-39
2022/02/01 10:27:59;;;;;;;73.65;60.47;;;;;;;;;;5047254;28;20031;-41
2022/02/01 10:30:38;;;;;;;73.07;58.83;;;;;;;;;;5045306;28;20508;-41
2022/02/01 10:38:04;;;;;;;57.13;37.85;;;;;;;;;;5044387;28;20075;-39
2022/02/01 10:40:55;;;;;;;48.42;31.67;;;;;;;;;;5041114;28;20108;-38
2022/02/01 10:43:28;;;;;;;42.90;23.05;;;;;;;;;;5042712;28;20040;-38
2022/02/01 10:45:59;;;;;;;37.22;22.00;;;;;;;;;;5044283;28;20029;-39
2022/02/01 10:48:26;;;;;;;29.55;19.15;;;;;;;;;;5046271;28;20503;-40
2022/02/01 10:51:07;;;;;;;46.30;22.83;;;;;;;;;;5046495;28;20699;-40
2022/02/01 10:53:33;;;;;;;33.70;21.98;;;;;;;;;;5039277;28;20025;-41
2022/02/01 10:56:02;;;;;;;29.85;16.42;;;;;;;;;;5046598;28;20032;-38
2022/02/01 10:58:28;;;;;;;29.25;12.45;;;;;;;;;;5044263;28;20485;-41
2022/02/01 11:00:53;;;;;;;19.63;8.05;;;;;;;;;;5044316;28;20032;-41
2022/02/01 11:03:19;;;;;;;22.92;10.75;;;;;;;;;;5046879;28;20590;-43
2022/02/01 11:05:48;;;;;;;25.25;11.82;;;;;;;;;;5046742;28;20021;-39
2022/02/01 11:08:15;;;;;;;16.48;10.23;;;;;;;;;;5036534;28;20472;-38
2022/02/01 11:10:48;;;;;;;12.25;8.32;;;;;;;;;;5044504;28;20025;-41
2022/02/01 11:13:13;;;;;;;10.23;6.15;;;;;;;;;;5041049;28;20040;-38
2022/02/01 11:15:39;;;;;;;20.33;6.97;;;;;;;;;;5042608;28;20024;-46
2022/02/01 11:18:08;;;;;;;21.90;7.07;;;;;;;;;;5041940;28;20518;-39
2022/02/01 11:20:33;;;;;;;13.98;6.18;;;;;;;;;;5044928;28;20883;-40
2022/02/01 11:23:03;;;;;;;15.85;9.38;;;;;;;;;;5040823;28;20126;-40
2022/02/01 11:25:41;;;;;;;11.00;6.95;;;;;;;;;;5045693;28;20032;-38
2022/02/01 11:30:36;;;;;;;7.05;5.82;;;;;;;;;;5040846;28;20541;-41
2022/02/01 11:33:03;;;;;;;14.93;6.82;;;;;;;;;;5041199;28;20085;-42
2022/02/01 11:35:28;;;;;;;10.35;5.35;;;;;;;;;;5041512;28;20029;-39
2022/02/01 11:38:01;;;;;;;22.98;4.57;;;;;;;;;;5043022;28;20767;-40
2022/02/01 11:40:32;;;;;;;14.48;5.65;;;;;;;;;;5041579;28;20074;-38
2022/02/01 11:42:59;;;;;;;26.75;22.73;;;;;;;;;;5041141;28;20589;-42
2022/02/01 11:45:27;;;;;;;25.50;17.15;;;;;;;;;;5045330;28;20470;-38
2022/02/01 11:47:52;;;;;;;22.30;17.55;;;;;;;;;;5040739;28;20033;-39
2022/02/01 11:50:20;;;;;;;29.33;26.20;;;;;;;;;;5050624;28;20072;-38
2022/02/01 11:52:46;;;;;;;34.63;31.30;;;;;;;;;;5041817;28;20119;-39
2022/02/01 11:55:13;;;;;;;22.00;14.75;;;;;;;;;;5048126;28;20749;-39
2022/02/01 11:57:43;;;;;;;16.80;14.10;;;;;;;;;;5046350;28;20024;-38
2022/02/01 12:00:14;;;;;;;15.73;7.90;;;;;;;;;;5041868;28;20021;-39
2022/02/01 12:02:45;;;;;;;27.23;13.23;;;;;;;;;;5046325;28;20444;-40
2022/02/01 12:05:16;;;;;;;39.05;26.95;;;;;;;;;;5044193;28;20131;-37
2022/02/01 12:07:46;;;;;;;15.77;13.90;;;;;;;;;;5044876;28;20028;-40
2022/02/01 12:10:16;;;;;;;9.73;8.82;;;;;;;;;;5039710;28;20025;-40
2022/02/01 12:12:42;;;;;;;11.98;6.32;;;;;;;;;;5043968;28;20024;-42
2022/02/01 12:15:07;;;;;;;13.90;6.25;;;;;;;;;;5040399;28;20052;-39
2022/02/01 12:17:34;;;;;;;9.32;3.75;;;;;;;;;;5035439;28;20027;-39
2022/02/01 12:20:01;;;;;;;7.18;4.03;;;;;;;;;;5038969;28;20017;-38
2022/02/01 12:22:40;;;;;;;16.40;6.72;;;;;;;;;;5038195;28;20037;-40
2022/02/01 12:25:07;;;;;;;8.52;5.35;;;;;;;;;;5037596;28;20075;-41
2022/02/01 12:27:36;;;;;;;10.93;5.55;;;;;;;;;;5043296;28;20440;-40
2022/02/01 12:30:03;;;;;;;14.20;4.43;;;;;;;;;;5038006;28;20064;-39
2022/02/01 12:32:28;;;;;;;16.77;4.07;;;;;;;;;;5043459;28;20017;-40
2022/02/01 12:34:53;;;;;;;10.68;4.15;;;;;;;;;;5044165;28;20032;-42
2022/02/01 12:37:22;;;;;;;14.90;4.65;;;;;;;;;;5044132;28;20016;-39
2022/02/01 12:39:58;;;;;;;13.55;5.90;;;;;;;;;;5048863;28;20025;-39
2022/02/01 12:42:36;;;;;;;14.60;4.80;;;;;;;;;;5044601;28;20024;-38
2022/02/01 12:47:45;;;;;;;10.07;3.50;;;;;;;;;;5050827;28;20086;-42
2022/02/01 12:50:11;;;;;;;8.90;4.70;;;;;;;;;;5044576;28;20024;-40
2022/02/01 12:52:38;;;;;;;7.15;3.78;;;;;;;;;;5040784;28;20025;-41
2022/02/01 12:55:09;;;;;;;13.40;3.95;;;;;;;;;;5043651;28;20152;-38
2022/02/01 12:57:35;;;;;;;5.93;5.32;;;;;;;;;;5042467;28;20025;-41
2022/02/01 13:00:04;;;;;;;6.47;3.35;;;;;;;;;;5041099;28;20017;-40
2022/02/01 13:02:34;;;;;;;23.75;5.32;;;;;;;;;;5041261;28;20048;-38
2022/02/01 13:05:01;;;;;;;11.75;5.05;;;;;;;;;;5041987;28;20158;-40
2022/02/01 13:07:44;;;;;;;14.32;3.40;;;;;;;;;;5038875;28;20036;-39
2022/02/01 13:15:46;;;;;;;16.27;4.70;;;;;;;;;;5017991;28;20039;-38
2022/02/01 13:18:17;;;;;;;9.75;6.88;;;;;;;;;;5044641;28;20043;-39
2022/02/01 13:20:43;;;;;;;7.72;6.13;;;;;;;;;;5040304;28;20037;-39
2022/02/01 13:23:11;;;;;;;5.60;4.88;;;;;;;;;;5042636;28;20045;-38
2022/02/01 13:25:39;;;;;;;17.83;6.10;;;;;;;;;;5043673;28;20045;-42
2022/02/01 13:28:06;;;;;;;11.00;6.07;;;;;;;;;;5045393;28;20150;-40
2022/02/01 13:30:34;;;;;;;19.05;3.67;;;;;;;;;;5047482;28;20074;-40
2022/02/01 13:33:04;;;;;;;7.90;4.55;;;;;;;;;;5043534;28;20095;-39
2022/02/01 13:35:30;;;;;;;9.48;4.07;;;;;;;;;;5042247;28;20025;-38
2022/02/01 13:37:55;;;;;;;9.32;6.00;;;;;;;;;;5047242;28;20102;-39
2022/02/01 13:40:22;;;;;;;12.70;5.75;;;;;;;;;;5045707;28;20060;-38
2022/02/01 13:42:47;;;;;;;15.38;6.38;;;;;;;;;;5040472;28;20033;-41
2022/02/01 13:45:14;;;;;;;21.30;6.72;;;;;;;;;;5040808;28;20028;-36
2022/02/01 13:47:40;;;;;;;3.78;2.53;;;;;;;;;;5047300;28;20028;-38
2022/02/01 13:50:10;;;;;;;17.83;4.30;;;;;;;;;;5044516;28;20221;-39
2022/02/01 13:52:36;;;;;;;11.85;2.25;;;;;;;;;;5043543;28;20025;-39
2022/02/01 13:55:03;;;;;;;16.08;2.17;;;;;;;;;;5042114;28;20025;-39
2022/02/01 13:57:29;;;;;;;10.73;4.63;;;;;;;;;;5044059;28;20025;-40
2022/02/01 14:00:04;;;;;;;10.23;3.75;;;;;;;;;;5041427;28;20049;-42
2022/02/01 14:02:35;;;;;;;12.73;3.50;;;;;;;;;;5041464;28;20063;-39
2022/02/01 14:05:08;;;;;;;10.02;3.35;;;;;;;;;;5041589;28;20028;-38
2022/02/01 14:32:18;;;;;;;5.90;2.42;;;;;;;;;;5043108;28;20417;-38
2022/02/01 14:34:45;;;;;;;5.57;3.67;;;;;;;;;;5047992;28;20032;-41
2022/02/01 14:37:28;;;;;;;6.07;2.08;;;;;;;;;;5041432;28;20033;-37
2022/02/01 14:45:09;;;;;;;7.28;4.43;;;;;;;;;;5044716;28;19919;-38
2022/02/01 14:47:35;;;;;;;8.77;4.60;;;;;;;;;;5045945;28;20423;-37
2022/02/01 14:50:00;;;;;;;5.97;3.45;;;;;;;;;;5041126;28;20099;-39
2022/02/01 14:52:26;;;;;;;7.85;3.47;;;;;;;;;;5040878;28;20021;-39
2022/02/01 14:54:55;;;;;;;4.28;1.75;;;;;;;;;;5040020;28;20053;-41
2022/02/01 15:13:29;;;;;;;6.85;2.85;;;;;;;;;;5048893;28;20146;-39
2022/02/01 15:15:55;;;;;;;3.42;2.47;;;;;;;;;;5039216;28;20030;-38
2022/02/01 15:18:20;;;;;;;3.63;1.23;;;;;;;;;;5040414;28;20029;-38
2022/02/01 15:20:46;;;;;;;6.20;2.70;;;;;;;;;;5041851;28;20393;-40
2022/02/01 15:23:11;;;;;;;7.03;2.47;;;;;;;;;;5042530;28;20059;-38
2022/02/01 15:25:36;;;;;;;16.13;14.57;;;;;;;;;;5042306;28;20561;-40
2022/02/01 15:28:02;;;;;;;6.53;4.22;;;;;;;;;;5039900;28;20024;-37
2022/02/01 15:30:32;;;;;;;18.20;5.10;;;;;;;;;;5043083;28;20606;-37
2022/02/01 15:32:57;;;;;;;9.60;2.70;;;;;;;;;;5043669;28;20138;-38
2022/02/01 15:35:23;;;;;;;43.58;7.85;;;;;;;;;;5041003;28;20520;-37
2022/02/01 15:37:52;;;;;;;23.67;12.10;;;;;;;;;;5037167;28;20021;-37
2022/02/01 15:59:18;;;;;;;17.95;6.72;;;;;;;;;;5041243;28;20570;-37
2022/02/01 16:01:52;;;;;;;9.90;7.55;;;;;;;;;;5044388;28;20115;-37
2022/02/01 16:04:19;;;;;;;14.38;7.40;;;;;;;;;;5046445;28;20515;-36
2022/02/01 16:06:52;;;;;;;15.15;13.13;;;;;;;;;;5040363;28;20446;-37
2022/02/01 16:09:25;;;;;;;30.73;20.05;;;;;;;;;;5042933;28;20032;-36
2022/02/01 16:11:52;;;;;;;32.25;20.92;;;;;;;;;;5042430;28;20047;-36
2022/02/01 16:14:17;;;;;;;23.88;16.90;;;;;;;;;;5041705;28;20802;-36
2022/02/01 16:16:43;;;;;;;24.83;20.85;;;;;;;;;;5040588;28;20021;-38
2022/02/01 16:19:10;;;;;;;37.08;22.00;;;;;;;;;;5041252;28;20082;-36
2022/02/01 16:21:37;;;;;;;20.02;16.63;;;;;;;;;;5039558;28;20028;-37
2022/02/01 16:24:02;;;;;;;22.50;14.07;;;;;;;;;;5041757;28;20458;-37
2022/02/01 16:26:28;;;;;;;25.65;18.55;;;;;;;;;;5045653;28;20058;-38
2022/02/01 16:28:54;;;;;;;42.75;33.28;;;;;;;;;;5043038;28;20098;-38
2022/02/01 16:31:19;;;;;;;32.45;27.95;;;;;;;;;;5039029;28;20020;-37
2022/02/01 16:33:45;;;;;;;33.05;23.17;;;;;;;;;;5043485;28;20083;-43
2022/02/01 16:36:18;;;;;;;27.17;22.77;;;;;;;;;;5041079;28;20021;-37
2022/02/01 16:38:44;;;;;;;23.73;16.02;;;;;;;;;;5044840;28;20171;-37
2022/02/01 16:41:09;;;;;;;23.30;11.52;;;;;;;;;;5045928;28;20024;-40
2022/02/01 16:43:36;;;;;;;36.00;26.98;;;;;;;;;;5036462;28;20040;-39
2022/02/01 16:46:01;;;;;;;27.15;19.55;;;;;;;;;;5039466;28;20153;-47
2022/02/01 16:48:26;;;;;;;11.50;5.70;;;;;;;;;;5046278;28;20580;-41
2022/02/01 16:50:52;;;;;;;9.50;6.00;;;;;;;;;;5044162;28;20139;-39
2022/02/01 16:53:19;;;;;;;17.20;10.07;;;;;;;;;;5048068;28;20077;-37
2022/02/01 16:55:52;;;;;;;27.38;15.35;;;;;;;;;;5045901;28;20057;-38
2022/02/01 17:00:49;;;;;;;9.70;6.55;;;;;;;;;;5043166;28;20082;-39
2022/02/01 17:03:15;;;;;;;9.13;4.75;;;;;;;;;;5047504;28;20040;-42